createdAt,value
2022-11-03T00:01:26.973Z,8.61
2022-11-03T00:04:28.546Z,8.60
2022-11-03T00:07:30.225Z,8.58
2022-11-03T00:10:33.057Z,8.59
2022-11-03T00:13:35.125Z,8.64
2022-11-03T00:16:36.938Z,8.65
2022-11-03T00:19:38.602Z,8.68
2022-11-03T00:22:40.268Z,8.72
2022-11-03T00:25:43.092Z,8.71
2022-11-03T00:28:45.559Z,8.78
2022-11-03T00:31:47.073Z,8.81
2022-11-03T00:34:48.740Z,8.81
2022-11-03T00:37:50.240Z,8.80
2022-11-03T00:40:56.475Z,8.83
2022-11-03T00:43:58.077Z,8.90
2022-11-03T00:46:59.800Z,8.95
2022-11-03T00:50:01.483Z,8.97
2022-11-03T00:53:03.814Z,8.90
2022-11-03T00:56:08.126Z,8.89
2022-11-03T00:59:12.326Z,8.93
2022-11-03T01:02:14.167Z,8.95
2022-11-03T01:05:34.426Z,9.02
2022-11-03T01:08:38.861Z,9.02
2022-11-03T01:11:44.863Z,9.02
2022-11-03T01:14:47.438Z,9.03
2022-11-03T01:17:49.091Z,8.96
2022-11-03T01:20:54.392Z,8.96
2022-11-03T01:23:56.083Z,8.94
2022-11-03T01:26:59.223Z,8.89
2022-11-03T01:30:03.109Z,8.90
2022-11-03T01:33:04.871Z,8.91
2022-11-03T01:36:06.885Z,8.90
2022-11-03T01:39:10.213Z,8.92
2022-11-03T01:42:14.540Z,8.90
2022-11-03T01:45:16.305Z,8.91
2022-11-03T01:48:18.945Z,8.92
2022-11-03T01:51:22.371Z,8.91
2022-11-03T01:54:26.727Z,8.87
2022-11-03T01:57:33.506Z,8.81
2022-11-03T02:00:35.731Z,8.79
2022-11-03T02:03:39.523Z,8.77
2022-11-03T02:06:41.065Z,8.74
2022-11-03T02:09:42.634Z,8.73
2022-11-03T02:12:45.603Z,8.69
2022-11-03T02:15:47.854Z,8.63
2022-11-03T02:18:49.781Z,8.57
2022-11-03T02:21:56.882Z,8.53
2022-11-03T02:25:02.755Z,8.47
2022-11-03T02:28:06.479Z,8.39
2022-11-03T02:31:15.272Z,8.32
2022-11-03T02:34:19.793Z,8.26
2022-11-03T02:37:22.705Z,8.22
2022-11-03T02:40:26.400Z,8.20
2022-11-03T02:43:29.591Z,8.17
2022-11-03T02:46:32.594Z,8.17
2022-11-03T02:49:38.134Z,8.14
2022-11-03T02:52:40.723Z,8.17
2022-11-03T02:55:46.099Z,8.18
2022-11-03T02:58:53.166Z,8.21
2022-11-03T03:01:58.763Z,8.25
2022-11-03T03:05:01.907Z,8.31
2022-11-03T03:08:05.229Z,8.35
2022-11-03T03:11:08.339Z,8.36
2022-11-03T03:14:12.890Z,8.37
2022-11-03T03:17:17.694Z,8.45
2022-11-03T03:20:20.644Z,8.52
2022-11-03T03:23:23.349Z,8.53
2022-11-03T03:26:26.343Z,8.58
2022-11-03T03:29:31.769Z,8.59
2022-11-03T03:32:36.193Z,8.60
2022-11-03T03:35:42.703Z,8.66
2022-11-03T03:38:46.310Z,8.66
2022-11-03T03:41:48.448Z,8.66
2022-11-03T03:44:52.576Z,8.67
2022-11-03T03:47:57.664Z,8.67
2022-11-03T03:51:00.822Z,8.73
2022-11-03T03:54:02.449Z,8.70
2022-11-03T03:57:04.919Z,8.73
2022-11-03T04:00:09.231Z,8.71
2022-11-03T04:03:14.011Z,8.67
2022-11-03T04:06:15.599Z,8.64
2022-11-03T04:09:17.165Z,8.60
2022-11-03T04:12:37.406Z,8.57
2022-11-03T04:15:52.695Z,8.54
2022-11-03T04:19:12.691Z,8.52
2022-11-03T04:22:17.510Z,8.45
2022-11-03T04:25:19.083Z,8.48
2022-11-03T04:28:21.411Z,8.45
2022-11-03T04:31:24.326Z,8.44
2022-11-03T04:34:25.993Z,8.43
2022-11-03T04:37:28.504Z,8.45
2022-11-03T04:40:30.385Z,8.46
2022-11-03T04:43:33.828Z,8.49
2022-11-03T04:46:36.842Z,8.51
2022-11-03T04:49:38.698Z,8.50
2022-11-03T04:52:40.346Z,8.50
2022-11-03T04:55:42.230Z,8.49
2022-11-03T04:58:43.907Z,8.52
2022-11-03T05:01:47.693Z,8.56
2022-11-03T05:04:49.444Z,8.54
2022-11-03T05:07:52.118Z,8.53
2022-11-03T05:10:53.682Z,8.51
2022-11-03T05:13:58.124Z,8.50
2022-11-03T05:17:01.820Z,8.49
2022-11-03T05:20:03.804Z,8.46
2022-11-03T05:23:06.346Z,8.42
2022-11-03T05:26:12.357Z,8.38
2022-11-03T05:29:15.849Z,8.37
2022-11-03T05:32:21.499Z,8.36
2022-11-03T05:35:23.324Z,8.34
2022-11-03T05:38:25.753Z,8.32
2022-11-03T05:41:29.249Z,8.35
2022-11-03T05:44:33.989Z,8.32
2022-11-03T05:47:38.974Z,8.34
2022-11-03T05:50:41.623Z,8.34
2022-11-03T05:53:43.497Z,8.33
2022-11-03T05:56:45.080Z,8.34
2022-11-03T05:59:48.091Z,8.35
2022-11-03T06:02:51.081Z,8.38
2022-11-03T06:05:53.569Z,8.36
2022-11-03T06:08:56.431Z,8.35
2022-11-03T06:11:59.201Z,8.34
2022-11-03T06:15:00.753Z,8.33
2022-11-03T06:18:10.717Z,8.32
2022-11-03T06:21:14.015Z,8.32
2022-11-03T06:24:17.993Z,8.33
2022-11-03T06:27:22.046Z,8.32
2022-11-03T06:30:25.473Z,8.29
2022-11-03T06:33:29.600Z,8.32
2022-11-03T06:36:32.304Z,8.35
2022-11-03T06:39:34.161Z,8.34
2022-11-03T06:42:36.240Z,8.34
2022-11-03T06:45:37.794Z,8.34
2022-11-03T06:48:40.782Z,8.39
2022-11-03T06:51:44.933Z,8.42
2022-11-03T06:54:48.764Z,8.42
2022-11-03T06:57:52.956Z,8.45
2022-11-03T07:01:02.638Z,8.43
2022-11-03T07:04:13.184Z,8.41
2022-11-03T07:07:14.708Z,8.47
2022-11-03T07:10:16.540Z,8.48
2022-11-03T07:13:19.801Z,8.47
2022-11-03T07:16:26.180Z,8.46
2022-11-03T07:19:30.142Z,8.52
2022-11-03T07:22:31.623Z,8.54
2022-11-03T07:25:33.181Z,8.52
2022-11-03T07:28:35.730Z,8.58
2022-11-03T07:31:37.390Z,8.64
2022-11-03T07:34:40.593Z,8.67
2022-11-03T07:37:42.240Z,8.71
2022-11-03T07:40:43.799Z,8.73
2022-11-03T07:43:50.299Z,8.79
2022-11-03T07:46:51.796Z,8.82
2022-11-03T07:49:55.005Z,8.83
2022-11-03T07:52:56.636Z,8.84
2022-11-03T07:55:58.729Z,8.84
2022-11-03T07:59:01.809Z,8.88
2022-11-03T08:02:15.120Z,8.94
2022-11-03T08:08:19.906Z,9.09
2022-11-03T08:11:26.128Z,9.13
2022-11-03T08:14:31.690Z,9.15
2022-11-03T08:17:33.451Z,9.18
2022-11-03T08:20:36.636Z,9.23
2022-11-03T08:23:44.623Z,9.23
2022-11-03T08:26:49.420Z,9.21
2022-11-03T08:29:51.139Z,9.24
2022-11-03T08:32:52.814Z,9.23
2022-11-03T08:35:55.755Z,9.27
2022-11-03T08:38:57.351Z,9.27
2022-11-03T08:41:59.038Z,9.30
2022-11-03T08:45:00.575Z,9.38
2022-11-03T08:48:02.212Z,9.51
2022-11-03T08:51:05.472Z,9.64
2022-11-03T08:54:07.058Z,9.72
2022-11-03T08:57:09.033Z,9.75
2022-11-03T09:00:11.546Z,9.77
2022-11-03T09:03:13.161Z,9.78
2022-11-03T09:06:16.576Z,9.83
2022-11-03T09:12:40.087Z,10.01
2022-11-03T09:15:41.665Z,10.12
2022-11-03T09:18:43.807Z,10.20
2022-11-03T09:21:46.647Z,10.21
2022-11-03T09:24:48.103Z,10.27
2022-11-03T09:27:49.796Z,10.30
2022-11-03T09:30:51.455Z,10.28
2022-11-03T09:33:52.900Z,10.33
2022-11-03T09:36:59.274Z,10.34
2022-11-03T09:40:02.156Z,10.29
2022-11-03T09:43:03.753Z,10.30
2022-11-03T09:46:05.750Z,10.33
2022-11-03T09:49:08.348Z,10.38
2022-11-03T09:52:21.172Z,10.45
2022-11-03T09:55:24.099Z,10.52
2022-11-03T09:58:26.240Z,10.57
2022-11-03T10:01:27.930Z,10.63
2022-11-03T10:04:30.064Z,10.69
2022-11-03T10:07:32.995Z,10.76
2022-11-03T10:10:34.886Z,10.78
2022-11-03T10:13:37.869Z,10.82
2022-11-03T10:16:39.998Z,10.85
2022-11-03T10:19:41.469Z,10.92
2022-11-03T10:22:45.575Z,10.99
2022-11-03T10:25:47.127Z,11.06
2022-11-03T10:28:57.180Z,11.14
2022-11-03T10:31:58.907Z,11.19
2022-11-03T10:35:00.430Z,11.25
2022-11-03T10:38:20.412Z,11.36
2022-11-03T10:41:23.150Z,11.44
2022-11-03T10:44:26.789Z,11.47
2022-11-03T10:47:32.828Z,11.47
2022-11-03T10:50:34.419Z,11.40
2022-11-03T10:53:37.662Z,11.42
2022-11-03T10:56:39.501Z,11.39
2022-11-03T10:59:41.427Z,11.38
2022-11-03T11:02:43.844Z,11.39
2022-11-03T11:05:46.318Z,11.36
2022-11-03T11:08:50.646Z,11.37
2022-11-03T11:11:59.258Z,11.38
2022-11-03T11:15:01.415Z,11.40
2022-11-03T11:18:04.654Z,11.47
2022-11-03T11:21:34.809Z,11.49
2022-11-03T11:24:58.075Z,11.50
2022-11-03T11:28:12.071Z,11.48
2022-11-03T11:31:30.129Z,11.48
2022-11-03T11:34:41.027Z,11.42
2022-11-03T11:37:42.633Z,11.41
2022-11-03T11:40:54.800Z,11.39
2022-11-03T11:44:23.650Z,11.36
2022-11-03T11:47:30.553Z,11.37
2022-11-03T11:50:32.354Z,11.38
2022-11-03T11:53:37.668Z,11.35
2022-11-03T11:56:43.005Z,11.36
2022-11-03T11:59:46.425Z,11.32
2022-11-03T12:02:49.049Z,11.33
2022-11-03T12:05:50.822Z,11.29
2022-11-03T12:09:03.504Z,11.32
2022-11-03T12:12:08.983Z,11.33
2022-11-03T12:15:29.267Z,11.35
2022-11-03T12:18:35.152Z,11.36
2022-11-03T12:21:47.461Z,11.38
2022-11-03T12:24:50.386Z,11.41
2022-11-03T12:27:53.882Z,11.42
2022-11-03T12:30:55.526Z,11.41
2022-11-03T12:33:57.196Z,11.38
2022-11-03T12:36:58.874Z,11.36
2022-11-03T12:40:00.788Z,11.31
2022-11-03T12:43:04.036Z,11.29
2022-11-03T12:46:05.869Z,11.27
2022-11-03T12:49:07.422Z,11.27
2022-11-03T12:52:10.640Z,11.27
2022-11-03T12:55:12.667Z,11.27
2022-11-03T12:58:17.362Z,11.30
2022-11-03T13:01:19.109Z,11.30
2022-11-03T13:04:21.299Z,11.30
2022-11-03T13:07:27.929Z,11.27
2022-11-03T13:10:30.713Z,11.26
2022-11-03T13:13:33.626Z,11.25
2022-11-03T13:16:35.793Z,11.22
2022-11-03T13:19:37.432Z,11.26
2022-11-03T13:22:39.748Z,11.25
2022-11-03T13:25:41.320Z,11.20
2022-11-03T13:28:44.449Z,11.22
2022-11-03T13:31:46.022Z,11.28
2022-11-03T13:34:47.512Z,11.40
2022-11-03T13:37:49.872Z,11.44
2022-11-03T13:41:03.615Z,11.48
2022-11-03T13:44:20.022Z,11.50
2022-11-03T13:47:38.866Z,11.50
2022-11-03T13:50:43.239Z,11.55
2022-11-03T14:00:29.289Z,11.56
2022-11-03T14:06:52.512Z,11.48
2022-11-03T14:09:55.865Z,11.45
2022-11-03T14:12:59.609Z,11.45
2022-11-03T14:16:02.442Z,11.43
2022-11-03T14:19:04.211Z,11.41
2022-11-03T14:22:05.734Z,11.36
2022-11-03T14:25:09.773Z,11.32
2022-11-03T14:28:11.449Z,11.31
2022-11-03T14:31:14.832Z,11.27
2022-11-03T14:34:16.305Z,11.26
2022-11-03T14:37:18.043Z,11.25
2022-11-03T14:40:38.078Z,11.21
2022-11-03T14:43:39.683Z,11.20
2022-11-03T14:46:42.580Z,11.19
2022-11-03T14:49:45.039Z,11.16
2022-11-03T14:52:46.501Z,11.17
2022-11-03T14:55:48.145Z,11.13
2022-11-03T14:58:50.335Z,11.14
2022-11-03T15:01:53.672Z,11.10
2022-11-03T15:04:55.341Z,11.09
2022-11-03T15:07:56.890Z,11.09
2022-11-03T15:10:58.458Z,11.09
2022-11-03T15:14:00.332Z,11.08
2022-11-03T15:17:03.442Z,11.07
2022-11-03T15:20:05.559Z,11.04
2022-11-03T15:26:28.835Z,11.00
2022-11-03T15:29:30.467Z,10.98
2022-11-03T15:32:36.423Z,10.97
2022-11-03T15:35:38.423Z,10.96
2022-11-03T15:38:40.152Z,10.94
2022-11-03T15:41:41.813Z,10.92
2022-11-03T15:44:43.406Z,10.93
2022-11-03T15:47:46.285Z,10.90
2022-11-03T15:50:47.769Z,10.87
2022-11-03T15:53:52.308Z,10.90
2022-11-03T15:56:58.287Z,10.89
2022-11-03T16:00:00.222Z,10.88
2022-11-03T16:03:03.350Z,10.88
2022-11-03T16:06:05.156Z,10.90
2022-11-03T16:09:06.714Z,10.88
2022-11-03T16:12:08.868Z,10.88
2022-11-03T16:15:10.742Z,10.87
2022-11-03T16:18:14.097Z,10.85
2022-11-03T16:21:15.723Z,10.85
2022-11-03T16:24:17.494Z,10.85
2022-11-03T16:27:19.059Z,10.85
2022-11-03T16:30:20.698Z,10.83
2022-11-03T16:33:23.636Z,10.81
2022-11-03T16:36:25.238Z,10.80
2022-11-03T16:39:27.050Z,10.82
2022-11-03T16:42:29.184Z,10.80
2022-11-03T16:45:36.399Z,10.78
2022-11-03T16:48:40.738Z,10.79
2022-11-03T16:51:42.284Z,10.80
2022-11-03T16:54:44.488Z,10.80
2022-11-03T16:57:45.995Z,10.76
2022-11-03T17:00:47.598Z,10.77
2022-11-03T17:03:52.536Z,10.78
2022-11-03T17:06:54.147Z,10.77
2022-11-03T17:09:59.561Z,10.74
2022-11-03T17:13:03.044Z,10.75
2022-11-03T17:16:06.586Z,10.76
2022-11-03T17:19:10.619Z,10.73
2022-11-03T17:22:12.290Z,10.73
2022-11-03T17:25:13.983Z,10.77
2022-11-03T17:28:18.957Z,10.81
2022-11-03T17:31:20.713Z,10.82
2022-11-03T17:34:25.116Z,10.81
2022-11-03T17:37:27.411Z,10.78
2022-11-03T17:40:32.240Z,10.78
2022-11-03T17:43:37.998Z,10.77
2022-11-03T17:46:39.625Z,10.78
2022-11-03T17:49:42.845Z,10.80
2022-11-03T17:52:46.029Z,10.81
2022-11-03T17:56:02.873Z,10.80
2022-11-03T17:59:13.347Z,10.79
2022-11-03T18:02:17.612Z,10.77
2022-11-03T18:05:23.643Z,10.80
2022-11-03T18:08:25.192Z,10.78
2022-11-03T18:11:48.836Z,10.78
2022-11-03T18:14:50.490Z,10.76
2022-11-03T18:17:52.188Z,10.79
2022-11-03T18:20:55.349Z,10.83
2022-11-03T18:23:57.250Z,10.81
2022-11-03T18:26:58.871Z,10.80
2022-11-03T18:30:00.516Z,10.78
2022-11-03T18:33:02.023Z,10.74
2022-11-03T18:36:06.370Z,10.73
2022-11-03T18:39:11.407Z,10.76
2022-11-03T18:42:13.358Z,10.80
2022-11-03T18:45:16.002Z,10.77
2022-11-03T18:48:20.606Z,10.76
2022-11-03T18:51:23.560Z,10.72
2022-11-03T18:54:25.219Z,10.69
2022-11-03T18:57:26.942Z,10.66
2022-11-03T19:00:28.545Z,10.65
2022-11-03T19:03:30.064Z,10.63
2022-11-03T19:06:34.072Z,10.63
2022-11-03T19:09:35.777Z,10.68
2022-11-03T19:12:39.265Z,10.68
2022-11-03T19:15:41.122Z,10.64
2022-11-03T19:18:44.102Z,10.62
2022-11-03T19:21:50.629Z,10.55
2022-11-03T19:24:52.217Z,10.47
2022-11-03T19:27:53.849Z,10.38
2022-11-03T19:30:57.994Z,10.34
2022-11-03T19:34:00.317Z,10.28
2022-11-03T19:37:03.796Z,10.24
2022-11-03T19:40:08.902Z,10.20
2022-11-03T19:43:10.680Z,10.21
2022-11-03T19:46:17.822Z,10.16
2022-11-03T19:49:19.331Z,10.10
2022-11-03T19:52:24.985Z,10.05
2022-11-03T19:55:28.843Z,10.04
2022-11-03T19:58:30.746Z,10.03
2022-11-03T20:01:32.335Z,10.00
2022-11-03T20:04:34.144Z,9.97
2022-11-03T20:07:37.905Z,9.99
2022-11-03T20:10:39.423Z,9.96
2022-11-03T20:13:42.782Z,9.94
2022-11-03T20:16:44.460Z,9.98
2022-11-03T20:19:46.061Z,9.97
2022-11-03T20:22:51.289Z,10.01
2022-11-03T20:25:53.564Z,9.99
2022-11-03T20:28:56.185Z,9.97
2022-11-03T20:31:57.819Z,9.97
2022-11-03T20:34:59.598Z,9.97
2022-11-03T20:38:02.633Z,9.96
2022-11-03T20:41:06.627Z,10.00
2022-11-03T20:44:09.006Z,10.03
2022-11-03T20:47:12.383Z,10.07
2022-11-03T20:50:15.268Z,10.10
2022-11-03T20:53:19.728Z,10.12
2022-11-03T20:56:22.138Z,10.09
2022-11-03T20:59:24.750Z,10.10
2022-11-03T21:02:26.949Z,10.08
2022-11-03T21:05:29.161Z,10.05
2022-11-03T21:08:32.209Z,10.02
2022-11-03T21:11:36.820Z,9.98
2022-11-03T21:14:38.332Z,9.94
2022-11-03T21:17:58.551Z,9.93
2022-11-03T21:21:00.466Z,9.90
2022-11-03T21:24:03.435Z,9.85
2022-11-03T21:27:04.892Z,9.85
2022-11-03T21:30:07.677Z,9.84
2022-11-03T21:33:09.540Z,9.85
2022-11-03T21:36:11.199Z,9.90
2022-11-03T21:39:14.411Z,9.88
2022-11-03T21:42:35.227Z,9.87
2022-11-03T21:45:36.910Z,9.90
2022-11-03T21:48:57.779Z,9.89
2022-11-03T21:51:59.463Z,9.86
2022-11-03T21:55:03.050Z,9.90
2022-11-03T21:58:05.036Z,9.90
2022-11-03T22:01:06.953Z,9.89
2022-11-03T22:04:08.626Z,9.87
2022-11-03T22:07:10.703Z,9.85
2022-11-03T22:10:13.737Z,9.85
2022-11-03T22:13:15.233Z,9.86
2022-11-03T22:16:35.246Z,9.87
2022-11-03T22:19:55.323Z,9.88
2022-11-03T22:23:18.393Z,9.95
2022-11-03T22:26:39.951Z,9.98
2022-11-03T22:30:00.141Z,10.04
2022-11-03T22:33:01.754Z,10.10
2022-11-03T22:36:22.152Z,10.16
2022-11-03T22:39:42.819Z,10.12
2022-11-03T22:43:07.991Z,10.13
2022-11-03T22:46:10.594Z,10.13
2022-11-03T22:49:12.307Z,10.17
2022-11-03T22:52:14.194Z,10.20
2022-11-03T22:55:15.774Z,10.20
2022-11-03T22:58:18.937Z,10.17
2022-11-03T23:01:21.473Z,10.17
2022-11-03T23:04:23.333Z,10.18
2022-11-03T23:07:30.848Z,10.23
2022-11-03T23:10:34.078Z,10.23
2022-11-03T23:13:36.924Z,10.22
2022-11-03T23:16:39.451Z,10.24
2022-11-03T23:19:59.461Z,10.21
2022-11-03T23:23:01.170Z,10.20
2022-11-03T23:26:02.798Z,10.16
2022-11-03T23:29:08.554Z,10.13
2022-11-03T23:32:10.098Z,10.13
2022-11-03T23:35:11.663Z,10.09
2022-11-03T23:38:13.275Z,10.10
2022-11-03T23:41:16.050Z,10.06
2022-11-03T23:44:19.036Z,10.05
2022-11-03T23:47:39.116Z,10.03
2022-11-03T23:50:43.442Z,10.04
2022-11-03T23:53:45.612Z,10.03
2022-11-03T23:57:06.041Z,10.03
